Time;durP1;ratioP1;P1;durP2;ratioP2;P2;SDS_P1;SDS_P2;PMS_P1;PMS_P2;Temp;Humidity;BMP_temperature;BMP_pressure;BME280_temperature;BME280_humidity;BME280_pressure;Samples;Min_cycle;Max_cycle;Signal;HPM_P1;HPM_P2
2021/10/26 00:00:40;;;;;;;17.95;7.80;;;11.10;99.90;;;;;;4947531;29;20032;-73
2021/10/26 00:03:06;;;;;;;23.08;8.65;;;11.10;99.90;;;;;;4947323;29;20042;-72
2021/10/26 00:05:32;;;;;;;19.92;9.05;;;11.10;99.90;;;;;;4945819;29;20031;-73
2021/10/26 00:07:57;;;;;;;18.92;8.32;;;11.00;99.90;;;;;;4947105;29;20032;-73
2021/10/26 00:10:23;;;;;;;18.92;9.32;;;11.00;99.90;;;;;;4944716;29;20043;-73
2021/10/26 00:12:49;;;;;;;19.92;9.23;;;11.00;99.90;;;;;;4945492;29;20028;-74
2021/10/26 00:15:15;;;;;;;15.93;8.45;;;11.00;99.90;;;;;;4946723;29;20027;-75
2021/10/26 00:17:41;;;;;;;15.20;8.30;;;11.00;99.90;;;;;;4946514;29;20055;-73
2021/10/26 00:20:08;;;;;;;12.13;6.68;;;11.00;99.90;;;;;;4947103;29;20083;-73
2021/10/26 00:22:34;;;;;;;21.55;9.82;;;11.00;99.90;;;;;;4946722;29;20048;-72
2021/10/26 00:25:01;;;;;;;16.98;8.68;;;11.00;99.90;;;;;;4945078;29;20024;-75
2021/10/26 00:27:27;;;;;;;32.40;9.10;;;10.90;99.90;;;;;;4946471;29;20032;-75
2021/10/26 00:29:53;;;;;;;20.25;8.50;;;10.90;99.90;;;;;;4947209;29;20130;-73
2021/10/26 00:32:19;;;;;;;19.08;8.57;;;10.90;99.90;;;;;;4947004;29;20408;-74
2021/10/26 00:34:45;;;;;;;15.80;8.43;;;10.90;99.90;;;;;;4948511;29;20039;-74
2021/10/26 00:37:12;;;;;;;20.88;9.48;;;10.90;99.90;;;;;;4950342;29;20032;-75
2021/10/26 00:39:37;;;;;;;14.20;8.25;;;10.90;99.90;;;;;;4950953;29;20472;-72
2021/10/26 00:42:04;;;;;;;16.98;8.50;;;10.90;99.90;;;;;;4951051;29;20034;-73
2021/10/26 00:44:31;;;;;;;18.08;9.20;;;10.90;99.90;;;;;;4949392;29;20023;-72
2021/10/26 00:46:57;;;;;;;19.52;8.73;;;10.90;99.90;;;;;;4949819;29;20055;-72
2021/10/26 00:49:23;;;;;;;22.05;8.38;;;10.90;99.90;;;;;;4950701;29;20028;-75
2021/10/26 00:51:49;;;;;;;18.30;8.32;;;10.90;99.90;;;;;;4950412;29;20032;-75
2021/10/26 00:54:15;;;;;;;23.42;8.73;;;10.80;99.90;;;;;;4948593;29;20050;-74
2021/10/26 00:56:41;;;;;;;18.38;8.70;;;10.90;99.90;;;;;;4950431;29;20035;-74
2021/10/26 00:59:08;;;;;;;20.50;8.55;;;10.90;99.90;;;;;;4950540;29;20063;-73
2021/10/26 01:01:35;;;;;;;16.48;8.80;;;10.80;99.90;;;;;;4949741;29;20046;-74
2021/10/26 01:04:01;;;;;;;20.27;9.10;;;10.80;99.90;;;;;;4949098;29;20659;-74
2021/10/26 01:06:27;;;;;;;19.50;8.77;;;10.80;99.90;;;;;;4950110;29;20040;-76
2021/10/26 01:08:59;;;;;;;20.83;8.80;;;10.90;99.90;;;;;;4950073;29;20028;-75
2021/10/26 01:11:24;;;;;;;30.30;10.13;;;10.80;99.90;;;;;;4929927;29;20071;-74
2021/10/26 01:13:51;;;;;;;29.48;9.50;;;10.70;99.90;;;;;;4930569;29;20048;-72
2021/10/26 01:16:16;;;;;;;17.30;8.10;;;10.70;99.90;;;;;;4929061;29;20044;-75
2021/10/26 01:18:42;;;;;;;17.50;9.00;;;10.70;99.90;;;;;;4929601;29;20157;-75
2021/10/26 01:21:08;;;;;;;22.48;8.80;;;10.70;99.90;;;;;;4930942;29;20028;-76
2021/10/26 01:23:35;;;;;;;19.02;8.93;;;10.80;99.90;;;;;;4931425;29;20087;-74
2021/10/26 01:26:01;;;;;;;20.45;8.65;;;10.70;99.90;;;;;;4930649;29;20036;-73
2021/10/26 01:28:26;;;;;;;18.08;8.85;;;10.60;99.90;;;;;;4930749;29;20055;-74
2021/10/26 01:30:53;;;;;;;21.00;9.30;;;10.70;99.90;;;;;;4930693;29;20032;-75
2021/10/26 01:33:18;;;;;;;22.80;9.10;;;10.70;99.90;;;;;;4929178;29;20064;-73
2021/10/26 01:35:45;;;;;;;15.48;7.85;;;10.70;99.90;;;;;;4930532;29;20028;-74
2021/10/26 01:38:11;;;;;;;22.38;9.07;;;10.70;99.90;;;;;;4930653;29;20028;-75
2021/10/26 01:40:37;;;;;;;21.60;9.63;;;10.70;99.90;;;;;;4930373;29;20040;-75
2021/10/26 01:43:04;;;;;;;28.60;8.68;;;10.80;99.90;;;;;;4947495;29;20074;-73
2021/10/26 01:45:30;;;;;;;25.40;9.73;;;10.80;99.90;;;;;;4949743;29;20028;-73
2021/10/26 01:47:56;;;;;;;20.95;10.05;;;10.80;99.90;;;;;;4948918;29;20035;-74
2021/10/26 01:50:22;;;;;;;25.42;8.93;;;10.80;99.90;;;;;;4949297;29;20027;-75
2021/10/26 01:52:49;;;;;;;18.02;8.23;;;10.90;99.90;;;;;;4949442;29;20040;-74
2021/10/26 01:55:33;;;;;;;22.88;8.88;;;10.90;99.90;;;;;;4947645;29;20028;-76
2021/10/26 01:57:59;;;;;;;16.90;8.23;;;10.90;99.90;;;;;;4933347;29;20061;-74
2021/10/26 02:00:25;;;;;;;21.67;9.45;;;10.90;99.90;;;;;;4930278;29;20035;-73
2021/10/26 02:02:51;;;;;;;29.38;9.63;;;10.90;99.90;;;;;;4930245;29;20059;-74
2021/10/26 02:05:17;;;;;;;20.15;9.07;;;11.00;99.90;;;;;;4928689;29;20129;-74
2021/10/26 02:07:44;;;;;;;19.58;8.82;;;11.00;99.90;;;;;;4941035;29;20028;-74
2021/10/26 02:10:11;;;;;;;19.45;8.23;;;11.00;99.90;;;;;;4950576;29;20051;-73
2021/10/26 02:12:37;;;;;;;20.58;8.23;;;11.10;99.90;;;;;;4968094;28;20027;-74
2021/10/26 02:15:05;;;;;;;26.67;10.90;;;11.10;99.90;;;;;;4968472;28;20035;-73
2021/10/26 02:17:30;;;;;;;27.45;10.50;;;11.10;99.90;;;;;;4967430;28;20030;-74
2021/10/26 02:19:56;;;;;;;26.10;9.70;;;11.10;99.90;;;;;;4968090;28;20043;-73
2021/10/26 02:22:21;;;;;;;25.25;9.43;;;11.10;99.90;;;;;;4965941;28;20023;-74
2021/10/26 02:24:47;;;;;;;23.25;9.48;;;11.10;99.90;;;;;;4967130;28;20106;-72
2021/10/26 02:27:13;;;;;;;32.08;10.32;;;11.10;99.90;;;;;;4968309;28;20106;-73
2021/10/26 02:29:39;;;;;;;22.52;10.43;;;11.10;99.90;;;;;;4967786;28;20042;-73
2021/10/26 02:32:05;;;;;;;22.00;10.35;;;11.10;99.90;;;;;;4960709;28;20023;-73
2021/10/26 02:34:31;;;;;;;17.85;8.93;;;11.10;99.90;;;;;;4948469;29;20235;-72
2021/10/26 02:37:03;;;;;;;24.20;10.57;;;11.10;99.90;;;;;;4948364;29;20460;-75
2021/10/26 02:39:28;;;;;;;19.02;8.90;;;11.10;99.90;;;;;;4946991;29;20095;-74
2021/10/26 02:41:54;;;;;;;23.75;10.38;;;11.10;99.90;;;;;;4948352;29;20035;-75
2021/10/26 02:44:20;;;;;;;22.25;10.25;;;11.20;99.90;;;;;;4946868;29;20048;-74
2021/10/26 02:46:45;;;;;;;15.57;8.95;;;11.10;99.90;;;;;;4948039;29;20039;-74
2021/10/26 02:49:14;;;;;;;24.73;10.55;;;11.00;99.90;;;;;;4948329;29;20063;-75
2021/10/26 02:51:40;;;;;;;27.98;10.82;;;11.10;99.90;;;;;;4948316;29;20023;-74
2021/10/26 02:54:06;;;;;;;20.52;9.23;;;11.00;99.90;;;;;;4948621;29;20086;-73
2021/10/26 02:56:32;;;;;;;30.55;11.32;;;11.00;99.90;;;;;;4947041;29;20028;-74
2021/10/26 02:58:58;;;;;;;16.10;8.88;;;11.00;99.90;;;;;;4945885;29;20102;-74
2021/10/26 03:01:23;;;;;;;27.67;10.93;;;11.00;99.90;;;;;;4946898;29;20028;-75
2021/10/26 03:03:51;;;;;;;30.02;10.70;;;11.00;99.90;;;;;;4948162;29;20031;-75
2021/10/26 03:06:17;;;;;;;24.23;9.85;;;11.00;99.90;;;;;;4946627;29;20035;-74
2021/10/26 03:08:43;;;;;;;25.17;9.88;;;10.90;99.90;;;;;;4946408;29;20392;-74
2021/10/26 03:11:09;;;;;;;26.25;9.48;;;10.90;99.90;;;;;;4929445;29;20052;-74
2021/10/26 03:13:37;;;;;;;33.55;11.10;;;10.90;99.90;;;;;;4927283;29;20040;-74
2021/10/26 03:16:03;;;;;;;20.67;9.30;;;10.90;99.90;;;;;;4928940;29;20034;-75
2021/10/26 03:18:29;;;;;;;22.10;10.68;;;10.90;99.90;;;;;;4928929;29;20099;-73
2021/10/26 03:20:58;;;;;;;23.02;10.27;;;10.90;99.90;;;;;;4927740;29;20036;-75
2021/10/26 03:23:25;;;;;;;22.45;9.82;;;10.90;99.90;;;;;;4927969;29;20043;-74
2021/10/26 03:25:51;;;;;;;24.98;9.82;;;10.80;99.90;;;;;;4928922;29;20052;-75
2021/10/26 03:28:16;;;;;;;21.30;11.07;;;10.80;99.90;;;;;;4928527;29;20040;-75
2021/10/26 03:30:44;;;;;;;21.00;10.25;;;10.80;99.90;;;;;;4927743;29;20024;-75
2021/10/26 03:33:10;;;;;;;38.38;11.15;;;10.80;99.90;;;;;;4928842;29;20047;-74
2021/10/26 03:35:35;;;;;;;26.20;10.80;;;10.80;99.90;;;;;;4928195;29;20028;-74
2021/10/26 03:38:01;;;;;;;20.35;9.10;;;10.80;99.90;;;;;;4928352;29;20100;-73
2021/10/26 03:40:27;;;;;;;28.95;10.07;;;10.80;99.90;;;;;;4928268;29;20036;-73
2021/10/26 03:42:53;;;;;;;23.95;8.90;;;10.80;99.90;;;;;;4928326;29;20031;-75
2021/10/26 03:45:18;;;;;;;21.17;8.85;;;10.80;99.90;;;;;;4927444;29;20100;-75
2021/10/26 03:47:45;;;;;;;20.77;8.95;;;10.80;99.90;;;;;;4926155;29;20042;-74
2021/10/26 03:50:15;;;;;;;21.67;9.60;;;10.80;99.90;;;;;;4928486;29;20027;-74
2021/10/26 03:52:40;;;;;;;26.48;8.70;;;10.80;99.90;;;;;;4929745;29;20122;-74
2021/10/26 03:55:08;;;;;;;20.70;9.18;;;10.80;99.90;;;;;;4926603;29;20454;-76
2021/10/26 03:57:34;;;;;;;25.95;10.85;;;10.80;99.90;;;;;;4928105;29;20032;-74
2021/10/26 03:59:59;;;;;;;29.83;11.10;;;10.80;99.90;;;;;;4928044;29;20161;-76
2021/10/26 04:02:28;;;;;;;16.27;8.52;;;10.80;99.90;;;;;;4926939;29;20054;-75
2021/10/26 04:04:57;;;;;;;21.88;10.13;;;10.80;99.90;;;;;;4928351;29;20059;-74
2021/10/26 04:07:22;;;;;;;22.45;10.07;;;10.80;99.90;;;;;;4926709;29;20047;-74
2021/10/26 04:09:56;;;;;;;31.15;12.18;;;10.80;99.90;;;;;;4940193;28;20051;-75
2021/10/26 04:14:47;;;;;;;28.48;10.68;;;10.80;99.90;;;;;;4965899;28;20496;-75
2021/10/26 04:17:14;;;;;;;29.52;10.68;;;10.80;99.90;;;;;;4966294;28;20100;-74
2021/10/26 04:19:40;;;;;;;22.90;11.23;;;10.80;99.90;;;;;;4965847;28;20027;-75
2021/10/26 04:22:08;;;;;;;20.10;9.25;;;10.80;99.90;;;;;;4966161;28;20038;-75
2021/10/26 04:24:34;;;;;;;23.02;10.70;;;10.80;99.90;;;;;;4966230;28;20151;-74
2021/10/26 04:27:00;;;;;;;27.27;11.02;;;10.80;99.90;;;;;;4964898;28;20039;-75
2021/10/26 04:29:26;;;;;;;19.45;9.18;;;10.80;99.90;;;;;;4965627;28;20038;-75
2021/10/26 04:31:53;;;;;;;25.40;10.10;;;10.80;99.90;;;;;;4965833;28;20023;-74
2021/10/26 04:34:18;;;;;;;30.08;10.35;;;10.80;99.90;;;;;;4964921;28;20039;-75
2021/10/26 04:36:44;;;;;;;23.70;10.48;;;10.90;99.90;;;;;;4965341;28;20070;-74
2021/10/26 04:39:10;;;;;;;25.60;10.18;;;10.90;99.90;;;;;;4965153;28;20040;-74
2021/10/26 04:41:36;;;;;;;30.17;10.50;;;10.90;99.90;;;;;;4966095;28;20035;-74
2021/10/26 04:44:03;;;;;;;36.08;10.55;;;10.90;99.90;;;;;;4965389;28;20030;-74
2021/10/26 04:46:33;;;;;;;24.27;9.80;;;10.90;99.90;;;;;;4965721;28;20030;-74
2021/10/26 04:49:00;;;;;;;33.10;10.50;;;10.90;99.90;;;;;;4958852;28;20063;-74
2021/10/26 04:51:25;;;;;;;25.67;10.98;;;10.90;99.90;;;;;;4963980;28;20027;-74
2021/10/26 04:53:51;;;;;;;21.85;10.63;;;10.90;99.90;;;;;;4966024;28;20411;-74
2021/10/26 04:56:16;;;;;;;21.52;10.05;;;10.90;99.90;;;;;;4964364;29;20087;-75
2021/10/26 04:58:42;;;;;;;26.33;11.30;;;10.90;99.90;;;;;;4965607;28;20031;-75
2021/10/26 05:01:09;;;;;;;31.92;11.30;;;10.90;99.90;;;;;;4966062;28;20424;-76
2021/10/26 05:03:35;;;;;;;27.15;12.13;;;10.80;99.90;;;;;;4965701;28;20050;-73
2021/10/26 05:06:02;;;;;;;21.70;10.15;;;10.80;99.90;;;;;;4965290;28;20037;-73
2021/10/26 05:08:28;;;;;;;23.45;10.30;;;10.80;99.90;;;;;;4965973;28;20031;-73
2021/10/26 05:10:54;;;;;;;27.27;12.43;;;10.90;99.90;;;;;;4959350;28;20047;-74
2021/10/26 05:13:19;;;;;;;27.42;13.13;;;10.80;99.90;;;;;;4949204;28;20078;-75
2021/10/26 05:15:45;;;;;;;22.77;10.45;;;10.80;99.90;;;;;;4947026;29;20032;-74
2021/10/26 05:18:13;;;;;;;23.55;10.80;;;10.80;99.90;;;;;;4946491;29;20023;-76
2021/10/26 05:20:39;;;;;;;24.45;9.90;;;10.80;99.90;;;;;;4945660;29;20039;-74
2021/10/26 05:23:06;;;;;;;25.13;10.63;;;10.80;99.90;;;;;;4949461;29;20031;-74
2021/10/26 05:25:33;;;;;;;32.70;11.80;;;10.80;99.90;;;;;;4949785;29;20477;-74
2021/10/26 05:28:03;;;;;;;22.45;9.48;;;10.80;99.90;;;;;;4949778;29;20047;-74
2021/10/26 05:30:28;;;;;;;29.83;11.50;;;10.80;99.90;;;;;;4948059;28;20078;-75
2021/10/26 05:32:54;;;;;;;22.55;10.63;;;10.80;99.90;;;;;;4949535;29;20036;-73
2021/10/26 05:35:20;;;;;;;18.85;9.52;;;10.80;99.90;;;;;;4948300;29;20099;-74
2021/10/26 05:37:45;;;;;;;29.58;10.05;;;10.80;99.90;;;;;;4949563;29;20059;-74
2021/10/26 05:40:12;;;;;;;31.00;11.07;;;10.80;99.90;;;;;;4949299;29;20039;-75
2021/10/26 05:42:37;;;;;;;37.28;10.50;;;10.80;99.90;;;;;;4949533;29;20032;-73
2021/10/26 05:45:04;;;;;;;25.63;10.40;;;10.90;99.90;;;;;;4949433;29;20039;-75
2021/10/26 05:47:30;;;;;;;26.10;11.27;;;10.90;99.90;;;;;;4949192;29;20024;-76
2021/10/26 05:49:56;;;;;;;30.20;10.52;;;10.90;99.90;;;;;;4954256;29;20090;-77
2021/10/26 05:52:21;;;;;;;19.20;8.32;;;10.90;99.90;;;;;;4957816;28;20035;-74
2021/10/26 05:54:47;;;;;;;24.27;9.40;;;11.00;99.90;;;;;;4963702;29;20039;-76
2021/10/26 05:57:13;;;;;;;32.85;10.05;;;11.00;99.90;;;;;;4966694;28;20032;-77
2021/10/26 05:59:38;;;;;;;27.20;10.57;;;11.00;99.90;;;;;;4960405;28;20496;-76
2021/10/26 06:02:04;;;;;;;24.27;10.68;;;11.10;99.90;;;;;;4957645;29;20035;-74
2021/10/26 06:04:29;;;;;;;17.10;8.90;;;11.10;99.90;;;;;;4949365;29;20515;-75
2021/10/26 06:06:56;;;;;;;19.60;8.90;;;11.00;99.90;;;;;;4957099;29;20035;-75
2021/10/26 06:09:22;;;;;;;23.33;9.38;;;11.10;99.90;;;;;;4964767;28;20063;-76
2021/10/26 06:11:51;;;;;;;26.92;10.25;;;11.10;99.90;;;;;;4965191;28;20046;-74
2021/10/26 06:14:17;;;;;;;21.00;9.57;;;11.20;99.90;;;;;;4953735;28;20043;-75
2021/10/26 06:16:43;;;;;;;20.80;9.73;;;11.20;99.90;;;;;;4959887;28;20114;-75
2021/10/26 06:19:10;;;;;;;24.92;10.27;;;11.20;99.90;;;;;;4965394;29;20035;-75
2021/10/26 06:21:37;;;;;;;23.65;9.63;;;11.20;99.90;;;;;;4967148;28;20035;-73
2021/10/26 06:24:03;;;;;;;30.65;11.68;;;11.20;99.90;;;;;;4964745;28;20510;-75
2021/10/26 06:26:30;;;;;;;20.75;9.07;;;11.20;99.90;;;;;;4961544;29;20046;-74
2021/10/26 06:28:56;;;;;;;21.13;9.50;;;11.20;99.90;;;;;;4967511;28;20035;-74
2021/10/26 06:31:22;;;;;;;25.63;11.55;;;11.20;99.90;;;;;;4966168;29;20086;-74
2021/10/26 06:33:48;;;;;;;29.40;10.82;;;11.20;99.90;;;;;;4958000;29;20504;-74
2021/10/26 06:36:14;;;;;;;20.73;9.43;;;11.20;99.90;;;;;;4962190;29;20051;-75
2021/10/26 06:38:40;;;;;;;27.50;10.30;;;11.30;99.90;;;;;;4966959;28;20030;-75
2021/10/26 06:41:06;;;;;;;21.67;9.02;;;11.30;99.90;;;;;;4966740;28;20090;-75
2021/10/26 06:43:34;;;;;;;22.75;9.93;;;11.30;99.90;;;;;;4965799;28;20031;-74
2021/10/26 06:46:00;;;;;;;27.02;10.55;;;11.30;99.90;;;;;;4967156;28;20035;-76
2021/10/26 06:48:25;;;;;;;32.63;9.35;;;11.30;99.90;;;;;;4958323;28;20030;-74
2021/10/26 06:50:51;;;;;;;21.98;10.38;;;11.30;99.90;;;;;;4967092;28;20027;-76
2021/10/26 06:53:19;;;;;;;19.08;8.38;;;11.30;99.90;;;;;;4953705;28;20067;-75
2021/10/26 06:55:53;;;;;;;21.58;10.05;;;11.30;99.90;;;;;;4946842;29;20024;-75
2021/10/26 06:58:19;;;;;;;22.08;10.23;;;11.30;99.90;;;;;;4946330;29;20126;-75
2021/10/26 07:00:49;;;;;;;19.08;9.20;;;11.40;99.90;;;;;;4949462;29;20111;-76
2021/10/26 07:03:15;;;;;;;20.42;8.65;;;11.40;99.90;;;;;;4964481;28;20031;-75
2021/10/26 07:05:44;;;;;;;22.45;10.07;;;11.40;99.90;;;;;;4965092;28;20027;-78
2021/10/26 07:08:10;;;;;;;23.92;9.48;;;11.40;99.90;;;;;;4948454;29;20027;-77
2021/10/26 07:10:35;;;;;;;18.95;9.20;;;11.40;99.90;;;;;;4967050;28;20443;-75
2021/10/26 07:13:03;;;;;;;27.20;10.77;;;11.40;99.90;;;;;;4965004;29;20039;-74
2021/10/26 07:15:29;;;;;;;25.67;9.75;;;11.40;99.90;;;;;;4964967;28;20055;-75
2021/10/26 07:17:55;;;;;;;22.50;10.57;;;11.40;99.90;;;;;;4961157;28;20039;-74
2021/10/26 07:20:21;;;;;;;17.33;8.65;;;11.40;99.90;;;;;;4961440;29;20035;-74
2021/10/26 07:22:54;;;;;;;22.55;9.07;;;11.50;99.90;;;;;;4957737;28;20083;-75
2021/10/26 07:25:25;;;;;;;24.80;9.13;;;11.50;99.90;;;;;;4962064;29;20173;-74
2021/10/26 07:27:58;;;;;;;19.52;7.72;;;11.50;99.90;;;;;;4965591;28;20787;-73
2021/10/26 07:30:27;;;;;;;18.77;8.13;;;11.50;99.90;;;;;;4954027;29;20028;-75
2021/10/26 07:32:54;;;;;;;20.30;8.93;;;11.50;99.90;;;;;;4946260;29;20051;-74
2021/10/26 07:35:20;;;;;;;17.95;8.77;;;11.50;99.90;;;;;;4946898;29;20059;-74
2021/10/26 07:37:47;;;;;;;23.50;7.47;;;11.50;99.90;;;;;;4961566;29;20028;-75
2021/10/26 07:40:17;;;;;;;28.23;8.70;;;11.50;99.90;;;;;;4946168;29;20036;-75
2021/10/26 07:42:43;;;;;;;24.85;8.80;;;11.60;99.90;;;;;;4947080;29;20027;-74
2021/10/26 07:45:11;;;;;;;22.23;9.45;;;11.60;99.90;;;;;;4961616;28;20504;-72
2021/10/26 07:47:37;;;;;;;20.52;8.18;;;11.60;99.90;;;;;;4946894;29;20027;-73
2021/10/26 07:50:03;;;;;;;20.38;9.50;;;11.60;99.90;;;;;;4946703;29;20024;-76
2021/10/26 07:52:29;;;;;;;19.85;8.55;;;11.60;99.90;;;;;;4946305;29;20020;-75
2021/10/26 07:54:55;;;;;;;19.77;9.27;;;11.60;99.90;;;;;;4953593;29;20035;-74
2021/10/26 07:57:22;;;;;;;25.02;9.80;;;11.60;99.90;;;;;;4965177;29;20111;-74
2021/10/26 07:59:48;;;;;;;20.35;8.20;;;11.60;99.90;;;;;;4965654;28;20031;-73
2021/10/26 08:02:14;;;;;;;17.05;7.15;;;11.60;99.90;;;;;;4964805;28;20034;-74
2021/10/26 08:04:42;;;;;;;20.55;7.78;;;11.70;99.90;;;;;;4959752;28;20032;-74
2021/10/26 08:07:08;;;;;;;16.33;7.95;;;11.70;99.90;;;;;;4946021;29;20083;-76
2021/10/26 08:09:35;;;;;;;18.42;7.93;;;11.70;99.90;;;;;;4945759;29;20040;-73
2021/10/26 08:12:05;;;;;;;15.30;7.05;;;11.70;99.90;;;;;;4946509;29;20857;-78
2021/10/26 08:14:31;;;;;;;18.83;7.72;;;11.70;99.90;;;;;;4951756;29;20047;-75
2021/10/26 08:16:57;;;;;;;17.95;7.90;;;11.70;99.90;;;;;;4965005;28;20038;-75
2021/10/26 08:19:22;;;;;;;22.63;8.70;;;11.70;99.90;;;;;;4961333;28;20039;-75
2021/10/26 08:21:49;;;;;;;19.33;7.45;;;11.90;99.90;;;;;;4964277;28;20039;-73
2021/10/26 08:24:18;;;;;;;23.67;8.15;;;11.80;99.90;;;;;;4964181;28;20439;-74
2021/10/26 08:26:47;;;;;;;15.95;7.70;;;11.70;99.90;;;;;;4965224;28;20019;-74
2021/10/26 08:29:31;;;;;;;16.23;7.50;;;11.80;99.90;;;;;;4963416;28;20031;-74
2021/10/26 08:37:49;;;;;;;22.75;8.57;;;11.90;99.90;;;;;;4947853;29;20047;-77
2021/10/26 08:40:19;;;;;;;13.02;6.57;;;12.00;99.90;;;;;;4959075;29;20035;-74
2021/10/26 08:42:50;;;;;;;22.45;8.00;;;12.00;99.90;;;;;;4945116;29;20488;-76
2021/10/26 08:45:20;;;;;;;16.45;7.07;;;12.00;99.90;;;;;;4945700;29;20034;-74
2021/10/26 08:47:49;;;;;;;14.13;7.10;;;12.00;99.90;;;;;;4955706;29;20059;-75
2021/10/26 08:50:18;;;;;;;20.10;7.35;;;12.00;99.90;;;;;;4955108;28;20456;-73
2021/10/26 08:52:45;;;;;;;19.55;7.03;;;12.10;99.90;;;;;;4956484;28;20050;-70
2021/10/26 08:55:12;;;;;;;18.10;7.72;;;12.00;99.90;;;;;;4962364;28;20122;-74
2021/10/26 08:57:39;;;;;;;13.95;6.78;;;12.10;99.90;;;;;;4964380;28;20027;-74
2021/10/26 09:00:08;;;;;;;16.67;6.72;;;12.10;99.90;;;;;;4959828;28;20028;-73
2021/10/26 09:02:39;;;;;;;23.13;7.32;;;12.10;99.90;;;;;;4950026;29;20095;-73
2021/10/26 09:05:10;;;;;;;15.20;7.55;;;12.10;99.90;;;;;;4951432;29;20126;-75
2021/10/26 09:07:36;;;;;;;15.45;7.40;;;12.20;99.90;;;;;;4962717;28;20079;-74
2021/10/26 09:10:13;;;;;;;17.33;6.97;;;12.20;99.90;;;;;;4966659;28;20058;-76
2021/10/26 09:17:50;;;;;;;25.10;7.88;;;12.40;99.90;;;;;;4968907;29;20046;-75
2021/10/26 09:20:23;;;;;;;14.75;6.00;;;12.40;99.90;;;;;;4965371;28;20035;-76
2021/10/26 09:22:57;;;;;;;17.13;7.05;;;12.50;99.90;;;;;;4950854;28;20060;-75
2021/10/26 09:25:37;;;;;;;16.98;7.15;;;12.60;99.90;;;;;;4949657;29;20100;-76
2021/10/26 09:28:30;;;;;;;16.63;6.22;;;12.70;99.90;;;;;;4977076;28;20043;-73
2021/10/26 09:31:09;;;;;;;13.40;6.22;;;12.70;99.90;;;;;;4965948;28;20126;-75
2021/10/26 09:33:38;;;;;;;14.60;6.45;;;12.90;99.90;;;;;;4959490;28;20054;-76
2021/10/26 09:36:27;;;;;;;16.30;6.63;;;13.00;99.90;;;;;;4968452;28;20463;-76
2021/10/26 09:39:11;;;;;;;25.83;7.63;;;13.00;99.90;;;;;;4968501;28;20054;-73
2021/10/26 09:41:55;;;;;;;16.10;7.35;;;13.10;99.90;;;;;;4966824;28;20086;-75
2021/10/26 09:44:27;;;;;;;15.95;6.35;;;13.20;99.90;;;;;;4968453;28;20035;-75
2021/10/26 09:47:00;;;;;;;18.15;6.85;;;13.30;99.90;;;;;;4966466;28;20038;-77
2021/10/26 09:49:34;;;;;;;13.85;6.43;;;13.50;99.90;;;;;;4964456;28;20027;-73
2021/10/26 09:52:11;;;;;;;13.93;6.70;;;13.60;99.90;;;;;;4956236;29;20028;-77
2021/10/26 09:54:41;;;;;;;11.90;5.65;;;13.70;99.90;;;;;;4949200;29;20833;-78
2021/10/26 09:57:17;;;;;;;12.73;6.03;;;13.80;99.90;;;;;;4957376;28;20064;-75
2021/10/26 09:59:52;;;;;;;13.20;5.82;;;13.80;99.90;;;;;;4960978;28;20032;-72
2021/10/26 10:02:27;;;;;;;14.48;5.63;;;13.90;99.90;;;;;;4948316;29;20089;-75
2021/10/26 10:04:55;;;;;;;12.05;5.03;;;14.10;99.90;;;;;;4946946;29;20040;-74
2021/10/26 10:07:31;;;;;;;16.27;5.90;;;14.20;99.90;;;;;;4956325;29;20087;-76
2021/10/26 10:09:59;;;;;;;14.25;6.03;;;14.30;99.90;;;;;;4960335;28;20051;-76
2021/10/26 10:12:26;;;;;;;11.88;5.80;;;14.40;99.90;;;;;;4961023;28;20377;-77
2021/10/26 10:14:54;;;;;;;18.48;5.45;;;14.50;99.90;;;;;;4958233;28;20043;-76
2021/10/26 10:17:27;;;;;;;15.00;6.13;;;14.50;99.90;;;;;;4965155;28;20059;-75
2021/10/26 10:19:55;;;;;;;10.50;5.47;;;14.40;99.90;;;;;;4962641;28;20035;-74
2021/10/26 10:22:30;;;;;;;11.73;5.55;;;14.30;99.90;;;;;;4961539;29;20023;-74
2021/10/26 10:24:59;;;;;;;17.58;5.90;;;14.20;99.90;;;;;;4964867;28;20035;-76
2021/10/26 10:27:32;;;;;;;21.85;6.40;;;14.30;99.90;;;;;;4949035;28;20031;-76
2021/10/26 10:29:58;;;;;;;12.60;6.00;;;14.30;99.90;;;;;;4948354;29;20052;-76
2021/10/26 10:32:29;;;;;;;12.93;6.45;;;14.30;99.90;;;;;;4971426;28;20033;-77
2021/10/26 10:34:56;;;;;;;16.80;6.63;;;14.20;99.90;;;;;;4954577;28;20066;-77
2021/10/26 10:37:25;;;;;;;12.15;6.03;;;14.10;99.90;;;;;;4977398;28;20482;-76
2021/10/26 10:39:55;;;;;;;20.77;7.18;;;14.00;99.90;;;;;;4973855;28;20035;-77
2021/10/26 10:42:25;;;;;;;20.13;7.15;;;14.00;99.90;;;;;;4966367;28;20057;-76
2021/10/26 10:44:54;;;;;;;19.50;7.28;;;14.00;99.90;;;;;;4966032;28;20071;-81
2021/10/26 10:47:43;;;;;;;17.80;7.05;;;14.00;99.90;;;;;;4966529;28;20031;-81
2021/10/26 10:50:37;;;;;;;12.48;6.53;;;14.00;99.90;;;;;;4967835;28;20027;-75
2021/10/26 10:53:08;;;;;;;14.13;6.90;;;14.10;99.90;;;;;;4965763;28;20051;-78
2021/10/26 10:55:35;;;;;;;20.45;7.22;;;14.40;99.90;;;;;;4966598;28;20094;-76
2021/10/26 10:58:26;;;;;;;19.25;6.63;;;14.70;99.90;;;;;;4966156;28;20027;-76
2021/10/26 11:01:15;;;;;;;17.13;6.40;;;14.80;99.90;;;;;;4965629;28;20063;-75
2021/10/26 11:03:43;;;;;;;14.23;6.68;;;14.70;99.90;;;;;;4965931;28;20496;-77
2021/10/26 11:06:09;;;;;;;16.88;5.75;;;14.80;99.90;;;;;;4967169;28;20079;-77
2021/10/26 11:08:47;;;;;;;13.77;6.20;;;14.80;99.90;;;;;;4966419;28;20075;-80
2021/10/26 11:11:16;;;;;;;14.82;6.75;;;14.70;99.90;;;;;;4965721;28;20138;-78
2021/10/26 11:13:44;;;;;;;15.65;5.80;;;14.80;99.90;;;;;;4967210;28;20393;-73
2021/10/26 11:16:12;;;;;;;13.30;6.30;;;14.70;99.90;;;;;;4954586;28;20036;-77
2021/10/26 11:18:47;;;;;;;13.05;5.53;;;14.70;99.90;;;;;;4953812;29;20399;-74
2021/10/26 11:21:23;;;;;;;;;;;14.70;99.90;;;;;;4946702;28;20134;-76
2021/10/26 11:24:07;;;;;;;14.25;6.07;;;14.70;99.90;;;;;;4947832;29;19907;-76
2021/10/26 11:26:41;;;;;;;12.30;5.97;;;14.60;99.90;;;;;;4946566;29;20388;-75
2021/10/26 11:29:13;;;;;;;10.83;5.47;;;14.60;99.90;;;;;;4946676;29;20116;-74
2021/10/26 11:31:48;;;;;;;8.85;5.22;;;14.60;99.90;;;;;;4966918;29;20058;-75
2021/10/26 11:34:27;;;;;;;12.10;5.70;;;14.50;99.90;;;;;;4964478;28;20043;-74
2021/10/26 11:36:57;;;;;;;12.18;5.93;;;14.70;99.90;;;;;;4965710;28;20067;-74
2021/10/26 11:39:24;;;;;;;12.20;6.25;;;14.90;99.90;;;;;;4966870;28;20027;-76
2021/10/26 11:41:51;;;;;;;16.92;5.72;;;15.00;99.90;;;;;;4964794;29;20023;-77
2021/10/26 11:44:18;;;;;;;10.60;5.55;;;15.00;99.90;;;;;;4967388;28;20035;-75
2021/10/26 11:46:48;;;;;;;13.60;5.85;;;14.90;99.90;;;;;;4966426;28;20031;-75
2021/10/26 11:49:23;;;;;;;9.88;5.07;;;14.70;99.90;;;;;;4966204;28;20034;-74
2021/10/26 11:52:00;;;;;;;11.45;5.18;;;14.70;99.90;;;;;;4965274;28;20110;-74
2021/10/26 11:54:39;;;;;;;10.98;5.55;;;14.60;99.90;;;;;;4966331;28;20098;-74
2021/10/26 11:57:10;;;;;;;12.85;4.25;;;14.50;99.90;;;;;;4966615;28;20027;-75
2021/10/26 11:59:41;;;;;;;14.00;4.85;;;14.50;99.90;;;;;;4966754;28;20059;-76
2021/10/26 12:02:17;;;;;;;8.57;4.70;;;14.40;99.90;;;;;;4947942;28;20117;-74
2021/10/26 12:04:55;;;;;;;7.65;4.47;;;14.50;99.90;;;;;;4947743;29;20023;-74
2021/10/26 12:07:26;;;;;;;8.57;3.78;;;14.50;99.90;;;;;;4947090;29;20368;-75
2021/10/26 12:09:54;;;;;;;11.52;4.30;;;14.70;99.90;;;;;;4946479;29;20055;-75
2021/10/26 12:12:24;;;;;;;6.80;2.75;;;15.00;99.90;;;;;;4947137;29;20034;-77
2021/10/26 12:14:54;;;;;;;11.48;3.97;;;15.10;99.90;;;;;;4950110;29;20035;-74
2021/10/26 12:17:32;;;;;;;8.68;3.70;;;15.20;99.90;;;;;;4966001;28;20027;-72
2021/10/26 12:20:11;;;;;;;9.82;3.80;;;15.00;99.90;;;;;;4966522;28;20460;-77
2021/10/26 12:22:43;;;;;;;8.13;3.97;;;14.90;99.90;;;;;;4965619;28;20031;-76
2021/10/26 12:27:50;;;;;;;13.38;3.95;;;14.80;99.90;;;;;;4964685;28;20020;-76
2021/10/26 12:30:28;;;;;;;24.88;4.60;;;14.70;99.90;;;;;;4966770;28;20035;-77
2021/10/26 12:33:06;;;;;;;6.45;3.45;;;14.80;99.90;;;;;;4965690;28;20043;-74
2021/10/26 12:35:41;;;;;;;8.93;3.42;;;14.80;99.90;;;;;;4956577;29;20043;-76
2021/10/26 12:38:37;;;;;;;13.75;3.58;;;14.80;99.90;;;;;;4964984;28;20090;-76
2021/10/26 12:41:47;;;;;;;8.50;4.03;;;14.60;99.90;;;;;;4965960;28;20036;-77
2021/10/26 12:44:23;;;;;;;7.47;4.40;;;14.60;99.90;;;;;;4962502;28;20388;-77
2021/10/26 12:47:03;;;;;;;11.45;4.22;;;14.50;99.90;;;;;;4965627;28;20031;-76
2021/10/26 12:49:36;;;;;;;9.45;3.85;;;14.50;99.90;;;;;;4964406;28;20031;-74
2021/10/26 12:52:13;;;;;;;7.00;3.78;;;14.50;99.90;;;;;;4965031;28;20031;-75
2021/10/26 12:54:41;;;;;;;7.85;3.78;;;14.40;99.90;;;;;;4962192;28;20454;-76
2021/10/26 12:57:08;;;;;;;6.70;3.50;;;14.40;99.90;;;;;;4963338;28;20121;-75
2021/10/26 12:59:46;;;;;;;11.73;3.97;;;14.40;99.90;;;;;;4964232;28;20024;-76